Blakely, Georgia
Current Conditions -  °F | °C
As of 11:15 AM on Saturday 20 Dec 2014 (Local Time) from KBIJ Reporting Station
Light Rain Light Rain  
Wind Chill: 54°   Ceiling: 4200
Heat Index: 54°   Visibility: 7mi
Dew Point: 52°   Wind: 5mph
Humidity: 94%   Direction: 30°NNE
Pressure: 30.19"   Gusts: NA
Location:  31.38°N, 84.93°W
Report Text: KBIJ 201615Z AUTO 03004KT 7SM -RA SCT006 BKN042 OVC050 12/11 A3019 RMK AO2
Loading
Personal Weather Stations






























Interactive Weather Map New forecast layout! Learn more

10-Day Weather Forecast

Advertisements
Track Severe Weather on mobile